sensor_id;sensor_type;location;lat;lon;timestamp;temperature;humidity
49236;DHT22;35067;48.134;8.378;2022-08-11T00:01:30;13.90;57.90
49236;DHT22;35067;48.134;8.378;2022-08-11T00:03:32;14.00;58.20
49236;DHT22;35067;48.134;8.378;2022-08-11T00:05:43;13.90;58.10
49236;DHT22;35067;48.134;8.378;2022-08-11T00:07:47;13.90;58.20
49236;DHT22;35067;48.134;8.378;2022-08-11T00:09:48;13.90;58.60
49236;DHT22;35067;48.134;8.378;2022-08-11T00:11:53;13.80;58.80
49236;DHT22;35067;48.134;8.378;2022-08-11T00:13:54;13.80;59.00
49236;DHT22;35067;48.134;8.378;2022-08-11T00:15:55;13.80;58.80
49236;DHT22;35067;48.134;8.378;2022-08-11T00:17:58;13.80;58.80
49236;DHT22;35067;48.134;8.378;2022-08-11T00:20:10;13.80;59.10
49236;DHT22;35067;48.134;8.378;2022-08-11T00:22:19;13.80;58.90
49236;DHT22;35067;48.134;8.378;2022-08-11T00:24:21;13.80;59.10
49236;DHT22;35067;48.134;8.378;2022-08-11T00:26:24;13.70;59.20
49236;DHT22;35067;48.134;8.378;2022-08-11T00:28:31;13.70;59.40
49236;DHT22;35067;48.134;8.378;2022-08-11T00:30:39;13.70;59.20
49236;DHT22;35067;48.134;8.378;2022-08-11T00:32:43;13.70;59.20
49236;DHT22;35067;48.134;8.378;2022-08-11T00:34:45;13.80;59.20
49236;DHT22;35067;48.134;8.378;2022-08-11T00:36:52;13.80;58.90
49236;DHT22;35067;48.134;8.378;2022-08-11T00:38:54;13.90;58.70
49236;DHT22;35067;48.134;8.378;2022-08-11T00:43:16;13.80;59.10
49236;DHT22;35067;48.134;8.378;2022-08-11T00:45:31;13.80;58.90
49236;DHT22;35067;48.134;8.378;2022-08-11T00:47:43;13.70;59.40
49236;DHT22;35067;48.134;8.378;2022-08-11T01:00:10;13.40;60.60
49236;DHT22;35067;48.134;8.378;2022-08-11T01:02:43;13.40;60.90
49236;DHT22;35067;48.134;8.378;2022-08-11T01:05:07;13.40;60.60
49236;DHT22;35067;48.134;8.378;2022-08-11T01:16:48;13.50;60.50
49236;DHT22;35067;48.134;8.378;2022-08-11T01:37:47;13.10;62.50
49236;DHT22;35067;48.134;8.378;2022-08-11T01:42:40;13.00;63.40
49236;DHT22;35067;48.134;8.378;2022-08-11T01:50:02;12.90;65.10
49236;DHT22;35067;48.134;8.378;2022-08-11T01:52:24;12.80;64.10
49236;DHT22;35067;48.134;8.378;2022-08-11T01:56:50;12.70;65.10
49236;DHT22;35067;48.134;8.378;2022-08-11T01:59:18;12.70;65.50
49236;DHT22;35067;48.134;8.378;2022-08-11T02:03:53;12.60;65.60
49236;DHT22;35067;48.134;8.378;2022-08-11T02:10:46;12.60;66.00
49236;DHT22;35067;48.134;8.378;2022-08-11T02:13:15;12.60;65.80
49236;DHT22;35067;48.134;8.378;2022-08-11T02:15:27;12.60;66.10
49236;DHT22;35067;48.134;8.378;2022-08-11T02:17:37;12.50;66.40
49236;DHT22;35067;48.134;8.378;2022-08-11T02:19:51;12.40;66.80
49236;DHT22;35067;48.134;8.378;2022-08-11T02:25:05;12.30;67.30
49236;DHT22;35067;48.134;8.378;2022-08-11T02:27:13;12.40;67.60
49236;DHT22;35067;48.134;8.378;2022-08-11T02:29:28;12.30;67.70
49236;DHT22;35067;48.134;8.378;2022-08-11T02:39:17;12.10;68.90
49236;DHT22;35067;48.134;8.378;2022-08-11T02:44:31;12.10;69.20
49236;DHT22;35067;48.134;8.378;2022-08-11T02:48:49;12.10;69.20
49236;DHT22;35067;48.134;8.378;2022-08-11T02:51:50;12.10;69.60
49236;DHT22;35067;48.134;8.378;2022-08-11T02:54:49;12.10;69.50
49236;DHT22;35067;48.134;8.378;2022-08-11T03:01:44;12.10;69.80
49236;DHT22;35067;48.134;8.378;2022-08-11T03:03:54;12.10;69.70
49236;DHT22;35067;48.134;8.378;2022-08-11T03:06:25;12.00;69.90
49236;DHT22;35067;48.134;8.378;2022-08-11T03:11:11;11.90;70.50
49236;DHT22;35067;48.134;8.378;2022-08-11T03:13:33;11.90;71.20
49236;DHT22;35067;48.134;8.378;2022-08-11T03:16:19;11.90;71.50
49236;DHT22;35067;48.134;8.378;2022-08-11T03:18:44;11.80;71.70
49236;DHT22;35067;48.134;8.378;2022-08-11T03:20:58;11.80;72.20
49236;DHT22;35067;48.134;8.378;2022-08-11T03:25:33;11.80;72.20
49236;DHT22;35067;48.134;8.378;2022-08-11T03:27:49;11.70;72.60
49236;DHT22;35067;48.134;8.378;2022-08-11T03:34:33;11.60;72.90
49236;DHT22;35067;48.134;8.378;2022-08-11T03:42:00;11.60;73.70
49236;DHT22;35067;48.134;8.378;2022-08-11T03:46:35;11.50;74.10
49236;DHT22;35067;48.134;8.378;2022-08-11T03:51:28;11.40;74.60
49236;DHT22;35067;48.134;8.378;2022-08-11T04:03:15;11.40;75.40
49236;DHT22;35067;48.134;8.378;2022-08-11T04:10:44;11.30;76.20
49236;DHT22;35067;48.134;8.378;2022-08-11T04:21:06;11.20;77.00
49236;DHT22;35067;48.134;8.378;2022-08-11T04:23:23;11.30;77.40
49236;DHT22;35067;48.134;8.378;2022-08-11T04:26:07;11.20;77.20
49236;DHT22;35067;48.134;8.378;2022-08-11T04:30:53;11.30;76.80
49236;DHT22;35067;48.134;8.378;2022-08-11T04:37:34;11.40;76.40
49236;DHT22;35067;48.134;8.378;2022-08-11T04:49:52;11.50;77.00
49236;DHT22;35067;48.134;8.378;2022-08-11T05:00:19;11.60;76.00
49236;DHT22;35067;48.134;8.378;2022-08-11T05:10:46;11.60;77.00
49236;DHT22;35067;48.134;8.378;2022-08-11T05:12:52;11.60;77.20
49236;DHT22;35067;48.134;8.378;2022-08-11T05:14:55;11.70;77.60
49236;DHT22;35067;48.134;8.378;2022-08-11T05:17:22;11.70;77.50
49236;DHT22;35067;48.134;8.378;2022-08-11T05:19:46;11.90;77.20
49236;DHT22;35067;48.134;8.378;2022-08-11T05:22:09;12.00;76.70
49236;DHT22;35067;48.134;8.378;2022-08-11T05:25:19;12.00;76.60
49236;DHT22;35067;48.134;8.378;2022-08-11T05:27:14;12.10;76.90
49236;DHT22;35067;48.134;8.378;2022-08-11T05:30:01;12.20;76.80
49236;DHT22;35067;48.134;8.378;2022-08-11T05:32:22;12.30;75.80
49236;DHT22;35067;48.134;8.378;2022-08-11T05:34:42;12.40;75.70
49236;DHT22;35067;48.134;8.378;2022-08-11T05:36:55;12.60;75.00
49236;DHT22;35067;48.134;8.378;2022-08-11T05:39:00;12.60;75.40
49236;DHT22;35067;48.134;8.378;2022-08-11T05:41:23;12.60;75.10
49236;DHT22;35067;48.134;8.378;2022-08-11T05:43:44;12.80;74.30
49236;DHT22;35067;48.134;8.378;2022-08-11T05:46:06;12.80;74.60
49236;DHT22;35067;48.134;8.378;2022-08-11T05:48:32;13.00;74.00
49236;DHT22;35067;48.134;8.378;2022-08-11T05:50:56;13.10;73.40
49236;DHT22;35067;48.134;8.378;2022-08-11T05:53:16;13.20;72.90
49236;DHT22;35067;48.134;8.378;2022-08-11T05:55:41;13.20;72.80
49236;DHT22;35067;48.134;8.378;2022-08-11T05:58:07;13.30;72.20
49236;DHT22;35067;48.134;8.378;2022-08-11T06:00:10;13.30;72.60
49236;DHT22;35067;48.134;8.378;2022-08-11T06:02:12;13.40;72.40
49236;DHT22;35067;48.134;8.378;2022-08-11T06:04:21;13.40;72.10
49236;DHT22;35067;48.134;8.378;2022-08-11T06:06:26;13.50;71.40
49236;DHT22;35067;48.134;8.378;2022-08-11T06:08:32;13.50;71.30
49236;DHT22;35067;48.134;8.378;2022-08-11T06:10:38;13.60;71.00
49236;DHT22;35067;48.134;8.378;2022-08-11T06:12:41;13.70;71.00
49236;DHT22;35067;48.134;8.378;2022-08-11T06:14:44;13.90;70.50
49236;DHT22;35067;48.134;8.378;2022-08-11T06:16:48;13.90;70.00
49236;DHT22;35067;48.134;8.378;2022-08-11T06:18:49;13.90;69.90
49236;DHT22;35067;48.134;8.378;2022-08-11T06:20:52;14.00;69.10
49236;DHT22;35067;48.134;8.378;2022-08-11T06:23:00;14.10;68.30
49236;DHT22;35067;48.134;8.378;2022-08-11T06:25:04;14.20;67.40
49236;DHT22;35067;48.134;8.378;2022-08-11T06:27:06;14.40;66.40
49236;DHT22;35067;48.134;8.378;2022-08-11T06:29:09;14.50;66.30
49236;DHT22;35067;48.134;8.378;2022-08-11T06:31:19;14.50;66.60
49236;DHT22;35067;48.134;8.378;2022-08-11T06:33:30;14.60;66.10
49236;DHT22;35067;48.134;8.378;2022-08-11T06:35:44;14.80;65.00
49236;DHT22;35067;48.134;8.378;2022-08-11T06:38:07;14.90;64.20
49236;DHT22;35067;48.134;8.378;2022-08-11T06:40:19;15.00;63.70
49236;DHT22;35067;48.134;8.378;2022-08-11T06:42:45;15.20;62.50
49236;DHT22;35067;48.134;8.378;2022-08-11T06:45:06;15.40;61.80
49236;DHT22;35067;48.134;8.378;2022-08-11T06:47:11;15.30;62.00
49236;DHT22;35067;48.134;8.378;2022-08-11T06:49:15;15.60;60.80
49236;DHT22;35067;48.134;8.378;2022-08-11T06:51:36;15.70;60.10
49236;DHT22;35067;48.134;8.378;2022-08-11T06:53:50;15.70;60.70
49236;DHT22;35067;48.134;8.378;2022-08-11T06:55:57;15.90;58.70
49236;DHT22;35067;48.134;8.378;2022-08-11T06:58:20;16.20;58.70
49236;DHT22;35067;48.134;8.378;2022-08-11T07:00:40;16.20;58.20
49236;DHT22;35067;48.134;8.378;2022-08-11T07:02:51;16.40;57.70
49236;DHT22;35067;48.134;8.378;2022-08-11T07:13:07;17.00;55.50
49236;DHT22;35067;48.134;8.378;2022-08-11T07:15:31;17.00;55.80
49236;DHT22;35067;48.134;8.378;2022-08-11T07:17:48;17.30;53.80
49236;DHT22;35067;48.134;8.378;2022-08-11T07:20:11;17.50;52.80
49236;DHT22;35067;48.134;8.378;2022-08-11T07:22:32;17.60;53.00
49236;DHT22;35067;48.134;8.378;2022-08-11T07:25:14;17.80;51.60
49236;DHT22;35067;48.134;8.378;2022-08-11T07:28:41;18.00;50.90
49236;DHT22;35067;48.134;8.378;2022-08-11T07:30:41;18.10;50.60
49236;DHT22;35067;48.134;8.378;2022-08-11T07:33:09;18.20;50.50
49236;DHT22;35067;48.134;8.378;2022-08-11T07:35:15;18.30;50.20
49236;DHT22;35067;48.134;8.378;2022-08-11T07:37:18;18.50;49.50
49236;DHT22;35067;48.134;8.378;2022-08-11T07:39:40;18.50;49.50
49236;DHT22;35067;48.134;8.378;2022-08-11T07:41:43;18.60;49.50
49236;DHT22;35067;48.134;8.378;2022-08-11T07:43:49;18.80;48.80
49236;DHT22;35067;48.134;8.378;2022-08-11T07:45:52;18.90;49.30
49236;DHT22;35067;48.134;8.378;2022-08-11T07:48:17;19.00;48.40
49236;DHT22;35067;48.134;8.378;2022-08-11T07:50:40;19.00;48.10
49236;DHT22;35067;48.134;8.378;2022-08-11T07:53:02;19.10;47.30
49236;DHT22;35067;48.134;8.378;2022-08-11T07:55:11;19.40;47.10
49236;DHT22;35067;48.134;8.378;2022-08-11T07:57:14;19.50;46.30
49236;DHT22;35067;48.134;8.378;2022-08-11T07:59:34;19.50;47.00
49236;DHT22;35067;48.134;8.378;2022-08-11T08:01:54;19.70;46.10
49236;DHT22;35067;48.134;8.378;2022-08-11T08:04:16;19.70;46.10
49236;DHT22;35067;48.134;8.378;2022-08-11T08:06:36;20.00;45.60
49236;DHT22;35067;48.134;8.378;2022-08-11T08:08:57;20.10;45.40
49236;DHT22;35067;48.134;8.378;2022-08-11T08:11:20;20.20;44.90
49236;DHT22;35067;48.134;8.378;2022-08-11T08:13:40;20.30;45.00
49236;DHT22;35067;48.134;8.378;2022-08-11T08:16:00;20.50;44.40
49236;DHT22;35067;48.134;8.378;2022-08-11T08:18:21;20.70;43.70
49236;DHT22;35067;48.134;8.378;2022-08-11T08:20:34;20.70;43.00
49236;DHT22;35067;48.134;8.378;2022-08-11T08:22:37;20.70;42.80
49236;DHT22;35067;48.134;8.378;2022-08-11T08:24:39;20.70;42.90
49236;DHT22;35067;48.134;8.378;2022-08-11T08:26:42;20.90;43.40
49236;DHT22;35067;48.134;8.378;2022-08-11T08:29:05;21.10;42.80
49236;DHT22;35067;48.134;8.378;2022-08-11T08:31:25;21.30;41.20
49236;DHT22;35067;48.134;8.378;2022-08-11T08:33:28;21.10;41.60
49236;DHT22;35067;48.134;8.378;2022-08-11T08:35:30;21.00;42.10
49236;DHT22;35067;48.134;8.378;2022-08-11T08:37:31;21.10;42.20
49236;DHT22;35067;48.134;8.378;2022-08-11T08:39:32;21.20;41.90
49236;DHT22;35067;48.134;8.378;2022-08-11T08:41:34;21.30;42.30
49236;DHT22;35067;48.134;8.378;2022-08-11T08:43:36;21.20;41.40
49236;DHT22;35067;48.134;8.378;2022-08-11T08:45:38;21.50;41.80
49236;DHT22;35067;48.134;8.378;2022-08-11T08:47:45;21.60;41.10
49236;DHT22;35067;48.134;8.378;2022-08-11T08:50:11;21.50;40.60
49236;DHT22;35067;48.134;8.378;2022-08-11T08:52:19;21.60;40.60
49236;DHT22;35067;48.134;8.378;2022-08-11T08:54:28;21.60;41.20
49236;DHT22;35067;48.134;8.378;2022-08-11T08:56:34;21.70;40.50
49236;DHT22;35067;48.134;8.378;2022-08-11T08:58:37;21.90;39.60
49236;DHT22;35067;48.134;8.378;2022-08-11T09:00:41;22.00;39.40
49236;DHT22;35067;48.134;8.378;2022-08-11T09:02:44;22.20;40.80
49236;DHT22;35067;48.134;8.378;2022-08-11T09:04:46;22.30;39.00
49236;DHT22;35067;48.134;8.378;2022-08-11T09:06:47;22.60;38.20
49236;DHT22;35067;48.134;8.378;2022-08-11T09:08:49;22.40;38.30
49236;DHT22;35067;48.134;8.378;2022-08-11T09:10:51;22.40;37.50
49236;DHT22;35067;48.134;8.378;2022-08-11T09:13:13;22.40;38.50
49236;DHT22;35067;48.134;8.378;2022-08-11T09:15:15;22.60;37.60
49236;DHT22;35067;48.134;8.378;2022-08-11T09:17:18;22.60;37.60
49236;DHT22;35067;48.134;8.378;2022-08-11T09:19:22;22.90;36.70
49236;DHT22;35067;48.134;8.378;2022-08-11T09:21:25;23.10;36.00
49236;DHT22;35067;48.134;8.378;2022-08-11T09:23:27;23.30;34.70
49236;DHT22;35067;48.134;8.378;2022-08-11T09:25:50;23.60;33.90
49236;DHT22;35067;48.134;8.378;2022-08-11T09:28:15;23.40;33.80
49236;DHT22;35067;48.134;8.378;2022-08-11T09:30:18;23.60;33.10
49236;DHT22;35067;48.134;8.378;2022-08-11T09:32:20;23.60;33.00
49236;DHT22;35067;48.134;8.378;2022-08-11T09:34:22;23.60;33.30
49236;DHT22;35067;48.134;8.378;2022-08-11T09:36:24;23.80;33.00
49236;DHT22;35067;48.134;8.378;2022-08-11T09:38:44;24.10;32.80
49236;DHT22;35067;48.134;8.378;2022-08-11T09:41:09;24.10;31.40
49236;DHT22;35067;48.134;8.378;2022-08-11T09:43:12;24.00;32.10
49236;DHT22;35067;48.134;8.378;2022-08-11T09:45:33;24.20;31.30
49236;DHT22;35067;48.134;8.378;2022-08-11T09:47:34;24.30;31.60
49236;DHT22;35067;48.134;8.378;2022-08-11T09:49:36;24.30;30.90
49236;DHT22;35067;48.134;8.378;2022-08-11T09:51:37;24.30;30.60
49236;DHT22;35067;48.134;8.378;2022-08-11T09:53:40;24.60;30.60
49236;DHT22;35067;48.134;8.378;2022-08-11T09:55:45;24.90;29.90
49236;DHT22;35067;48.134;8.378;2022-08-11T09:57:47;25.10;30.30
49236;DHT22;35067;48.134;8.378;2022-08-11T10:00:08;25.30;29.20
49236;DHT22;35067;48.134;8.378;2022-08-11T10:02:10;25.40;28.80
49236;DHT22;35067;48.134;8.378;2022-08-11T10:04:16;25.20;28.90
49236;DHT22;35067;48.134;8.378;2022-08-11T10:06:19;25.10;29.50
49236;DHT22;35067;48.134;8.378;2022-08-11T10:08:40;25.30;28.90
49236;DHT22;35067;48.134;8.378;2022-08-11T10:10:44;25.50;28.20
49236;DHT22;35067;48.134;8.378;2022-08-11T10:12:49;25.70;28.10
49236;DHT22;35067;48.134;8.378;2022-08-11T10:15:13;26.00;28.00
49236;DHT22;35067;48.134;8.378;2022-08-11T10:17:35;25.90;27.20
49236;DHT22;35067;48.134;8.378;2022-08-11T10:19:59;26.10;26.50
49236;DHT22;35067;48.134;8.378;2022-08-11T10:22:04;26.30;26.20
49236;DHT22;35067;48.134;8.378;2022-08-11T10:24:24;26.40;25.50
49236;DHT22;35067;48.134;8.378;2022-08-11T10:26:45;25.90;25.80
49236;DHT22;35067;48.134;8.378;2022-08-11T10:28:53;26.60;25.80
49236;DHT22;35067;48.134;8.378;2022-08-11T10:30:55;26.80;25.10
49236;DHT22;35067;48.134;8.378;2022-08-11T10:33:17;26.80;25.90
49236;DHT22;35067;48.134;8.378;2022-08-11T10:35:37;27.80;24.80
49236;DHT22;35067;48.134;8.378;2022-08-11T10:37:40;28.20;23.70
49236;DHT22;35067;48.134;8.378;2022-08-11T10:39:45;28.70;23.50
49236;DHT22;35067;48.134;8.378;2022-08-11T10:41:46;28.90;22.90
49236;DHT22;35067;48.134;8.378;2022-08-11T10:44:08;28.50;22.60
49236;DHT22;35067;48.134;8.378;2022-08-11T10:46:10;27.80;24.60
49236;DHT22;35067;48.134;8.378;2022-08-11T10:48:33;29.10;23.10
49236;DHT22;35067;48.134;8.378;2022-08-11T10:50:36;30.10;22.60
49236;DHT22;35067;48.134;8.378;2022-08-11T10:52:57;31.00;20.90
49236;DHT22;35067;48.134;8.378;2022-08-11T10:55:17;30.80;20.90
49236;DHT22;35067;48.134;8.378;2022-08-11T10:57:37;30.10;21.40
49236;DHT22;35067;48.134;8.378;2022-08-11T10:59:56;30.20;21.40
49236;DHT22;35067;48.134;8.378;2022-08-11T11:01:58;29.70;21.60
49236;DHT22;35067;48.134;8.378;2022-08-11T11:04:12;30.30;21.30
49236;DHT22;35067;48.134;8.378;2022-08-11T11:08:29;29.40;21.80
49236;DHT22;35067;48.134;8.378;2022-08-11T11:10:49;29.60;21.90
49236;DHT22;35067;48.134;8.378;2022-08-11T11:12:54;30.30;21.90
49236;DHT22;35067;48.134;8.378;2022-08-11T11:15:18;31.30;20.30
49236;DHT22;35067;48.134;8.378;2022-08-11T11:17:44;29.80;21.50
49236;DHT22;35067;48.134;8.378;2022-08-11T11:19:58;29.40;21.50
49236;DHT22;35067;48.134;8.378;2022-08-11T11:22:00;28.90;21.70
49236;DHT22;35067;48.134;8.378;2022-08-11T11:24:44;28.10;22.70
49236;DHT22;35067;48.134;8.378;2022-08-11T11:27:22;28.80;22.00
49236;DHT22;35067;48.134;8.378;2022-08-11T11:29:38;30.30;20.90
49236;DHT22;35067;48.134;8.378;2022-08-11T11:37:03;32.60;18.60
49236;DHT22;35067;48.134;8.378;2022-08-11T11:39:05;32.30;18.60
49236;DHT22;35067;48.134;8.378;2022-08-11T11:41:07;32.10;18.10
49236;DHT22;35067;48.134;8.378;2022-08-11T11:43:26;31.70;18.40
49236;DHT22;35067;48.134;8.378;2022-08-11T11:45:28;32.50;18.20
49236;DHT22;35067;48.134;8.378;2022-08-11T11:47:29;33.50;17.60
49236;DHT22;35067;48.134;8.378;2022-08-11T11:49:32;34.20;17.20
49236;DHT22;35067;48.134;8.378;2022-08-11T11:51:38;34.70;16.30
49236;DHT22;35067;48.134;8.378;2022-08-11T11:53:43;34.00;17.10
49236;DHT22;35067;48.134;8.378;2022-08-11T11:55:44;32.90;17.90
49236;DHT22;35067;48.134;8.378;2022-08-11T11:57:46;34.30;17.30
49236;DHT22;35067;48.134;8.378;2022-08-11T12:00:08;34.30;16.90
49236;DHT22;35067;48.134;8.378;2022-08-11T12:02:28;34.60;16.60
49236;DHT22;35067;48.134;8.378;2022-08-11T12:04:29;36.00;15.70
49236;DHT22;35067;48.134;8.378;2022-08-11T12:06:31;34.90;16.90
49236;DHT22;35067;48.134;8.378;2022-08-11T12:08:33;35.40;16.10
49236;DHT22;35067;48.134;8.378;2022-08-11T12:10:34;35.00;15.80
49236;DHT22;35067;48.134;8.378;2022-08-11T12:12:35;33.60;17.20
49236;DHT22;35067;48.134;8.378;2022-08-11T12:14:54;34.30;16.90
49236;DHT22;35067;48.134;8.378;2022-08-11T12:16:56;35.40;16.10
49236;DHT22;35067;48.134;8.378;2022-08-11T12:19:00;35.50;15.90
49236;DHT22;35067;48.134;8.378;2022-08-11T12:21:03;35.30;15.60
49236;DHT22;35067;48.134;8.378;2022-08-11T12:23:04;34.40;16.40
49236;DHT22;35067;48.134;8.378;2022-08-11T12:25:24;34.90;16.60
49236;DHT22;35067;48.134;8.378;2022-08-11T12:27:43;35.70;15.70
49236;DHT22;35067;48.134;8.378;2022-08-11T12:29:46;35.60;16.60
49236;DHT22;35067;48.134;8.378;2022-08-11T12:31:57;34.90;15.80
49236;DHT22;35067;48.134;8.378;2022-08-11T12:34:04;34.30;16.50
49236;DHT22;35067;48.134;8.378;2022-08-11T12:36:13;34.10;17.00
49236;DHT22;35067;48.134;8.378;2022-08-11T12:38:16;35.20;16.60
49236;DHT22;35067;48.134;8.378;2022-08-11T12:40:24;35.30;16.00
49236;DHT22;35067;48.134;8.378;2022-08-11T12:42:44;35.70;15.20
49236;DHT22;35067;48.134;8.378;2022-08-11T12:45:11;35.50;15.50
49236;DHT22;35067;48.134;8.378;2022-08-11T12:47:29;36.90;15.00
49236;DHT22;35067;48.134;8.378;2022-08-11T12:49:50;37.00;14.10
49236;DHT22;35067;48.134;8.378;2022-08-11T12:52:21;36.90;14.50
49236;DHT22;35067;48.134;8.378;2022-08-11T12:56:51;37.70;14.00
49236;DHT22;35067;48.134;8.378;2022-08-11T12:59:15;38.80;13.40
49236;DHT22;35067;48.134;8.378;2022-08-11T13:01:34;38.20;13.20
49236;DHT22;35067;48.134;8.378;2022-08-11T13:03:54;38.60;13.70
49236;DHT22;35067;48.134;8.378;2022-08-11T13:06:14;39.30;12.70
49236;DHT22;35067;48.134;8.378;2022-08-11T13:08:15;38.50;13.40
49236;DHT22;35067;48.134;8.378;2022-08-11T13:10:18;38.30;13.50
49236;DHT22;35067;48.134;8.378;2022-08-11T13:12:40;38.50;13.10
49236;DHT22;35067;48.134;8.378;2022-08-11T13:14:47;39.10;12.40
49236;DHT22;35067;48.134;8.378;2022-08-11T13:16:48;38.90;13.00
49236;DHT22;35067;48.134;8.378;2022-08-11T13:19:07;39.10;12.50
49236;DHT22;35067;48.134;8.378;2022-08-11T13:21:10;36.90;14.60
49236;DHT22;35067;48.134;8.378;2022-08-11T13:23:12;37.30;14.00
49236;DHT22;35067;48.134;8.378;2022-08-11T13:25:17;38.90;13.60
49236;DHT22;35067;48.134;8.378;2022-08-11T13:27:18;38.50;13.50
49236;DHT22;35067;48.134;8.378;2022-08-11T13:29:23;38.50;13.10
49236;DHT22;35067;48.134;8.378;2022-08-11T13:31:25;39.20;13.60
49236;DHT22;35067;48.134;8.378;2022-08-11T13:33:26;38.80;13.30
49236;DHT22;35067;48.134;8.378;2022-08-11T13:35:28;38.20;13.60
49236;DHT22;35067;48.134;8.378;2022-08-11T13:37:30;37.90;12.80
49236;DHT22;35067;48.134;8.378;2022-08-11T13:39:32;38.60;13.40
49236;DHT22;35067;48.134;8.378;2022-08-11T13:41:34;38.40;12.90
49236;DHT22;35067;48.134;8.378;2022-08-11T13:43:38;38.30;13.30
49236;DHT22;35067;48.134;8.378;2022-08-11T13:45:41;38.90;13.00
49236;DHT22;35067;48.134;8.378;2022-08-11T13:47:44;40.10;12.80
49236;DHT22;35067;48.134;8.378;2022-08-11T13:49:46;40.30;12.60
49236;DHT22;35067;48.134;8.378;2022-08-11T13:51:47;41.00;11.80
49236;DHT22;35067;48.134;8.378;2022-08-11T13:53:48;39.50;12.60
49236;DHT22;35067;48.134;8.378;2022-08-11T13:55:49;39.70;12.70
49236;DHT22;35067;48.134;8.378;2022-08-11T13:57:53;40.90;11.70
49236;DHT22;35067;48.134;8.378;2022-08-11T13:59:54;40.00;12.10
49236;DHT22;35067;48.134;8.378;2022-08-11T14:02:14;39.80;12.40
49236;DHT22;35067;48.134;8.378;2022-08-11T14:04:25;39.40;13.10
49236;DHT22;35067;48.134;8.378;2022-08-11T14:06:30;40.20;12.80
49236;DHT22;35067;48.134;8.378;2022-08-11T14:08:34;40.40;11.90
49236;DHT22;35067;48.134;8.378;2022-08-11T14:10:38;40.30;12.30
49236;DHT22;35067;48.134;8.378;2022-08-11T14:12:40;38.60;13.30
49236;DHT22;35067;48.134;8.378;2022-08-11T14:15:06;40.20;12.70
49236;DHT22;35067;48.134;8.378;2022-08-11T14:17:22;40.90;11.90
49236;DHT22;35067;48.134;8.378;2022-08-11T14:19:24;39.80;12.90
49236;DHT22;35067;48.134;8.378;2022-08-11T14:21:26;41.10;11.30
49236;DHT22;35067;48.134;8.378;2022-08-11T14:23:51;41.20;11.50
49236;DHT22;35067;48.134;8.378;2022-08-11T14:25:58;40.90;11.50
49236;DHT22;35067;48.134;8.378;2022-08-11T14:28:18;39.50;12.00
49236;DHT22;35067;48.134;8.378;2022-08-11T14:30:19;40.30;12.10
49236;DHT22;35067;48.134;8.378;2022-08-11T14:32:38;39.10;12.80
49236;DHT22;35067;48.134;8.378;2022-08-11T14:34:42;39.50;12.70
49236;DHT22;35067;48.134;8.378;2022-08-11T14:36:46;39.70;12.40
49236;DHT22;35067;48.134;8.378;2022-08-11T14:38:51;37.20;13.80
49236;DHT22;35067;48.134;8.378;2022-08-11T14:40:55;39.30;13.10
49236;DHT22;35067;48.134;8.378;2022-08-11T14:43:14;40.60;12.00
49236;DHT22;35067;48.134;8.378;2022-08-11T14:45:34;42.20;10.90
49236;DHT22;35067;48.134;8.378;2022-08-11T14:48:01;40.70;11.60
49236;DHT22;35067;48.134;8.378;2022-08-11T14:50:05;41.90;10.90
49236;DHT22;35067;48.134;8.378;2022-08-11T14:52:10;42.30;10.60
49236;DHT22;35067;48.134;8.378;2022-08-11T14:54:16;42.40;10.90
49236;DHT22;35067;48.134;8.378;2022-08-11T14:56:35;41.40;11.20
49236;DHT22;35067;48.134;8.378;2022-08-11T14:58:36;41.30;11.40
49236;DHT22;35067;48.134;8.378;2022-08-11T15:00:38;40.80;12.00
49236;DHT22;35067;48.134;8.378;2022-08-11T15:02:41;41.00;11.70
49236;DHT22;35067;48.134;8.378;2022-08-11T15:05:02;41.30;11.50
49236;DHT22;35067;48.134;8.378;2022-08-11T15:07:04;40.60;12.20
49236;DHT22;35067;48.134;8.378;2022-08-11T15:09:05;41.60;11.20
49236;DHT22;35067;48.134;8.378;2022-08-11T15:11:08;40.50;11.70
49236;DHT22;35067;48.134;8.378;2022-08-11T15:13:29;39.40;12.60
49236;DHT22;35067;48.134;8.378;2022-08-11T15:15:30;40.20;12.40
49236;DHT22;35067;48.134;8.378;2022-08-11T15:17:54;36.90;13.50
49236;DHT22;35067;48.134;8.378;2022-08-11T15:19:57;37.50;14.20
49236;DHT22;35067;48.134;8.378;2022-08-11T15:22:18;39.10;12.90
49236;DHT22;35067;48.134;8.378;2022-08-11T15:24:37;39.10;13.30
49236;DHT22;35067;48.134;8.378;2022-08-11T15:26:39;37.70;14.00
49236;DHT22;35067;48.134;8.378;2022-08-11T15:29:00;37.90;13.50
49236;DHT22;35067;48.134;8.378;2022-08-11T15:31:21;37.60;13.60
49236;DHT22;35067;48.134;8.378;2022-08-11T15:33:37;37.10;13.80
49236;DHT22;35067;48.134;8.378;2022-08-11T15:35:58;38.10;13.50
49236;DHT22;35067;48.134;8.378;2022-08-11T15:38:19;39.10;12.60
49236;DHT22;35067;48.134;8.378;2022-08-11T15:40:28;38.60;13.10
49236;DHT22;35067;48.134;8.378;2022-08-11T15:43:02;39.30;12.90
49236;DHT22;35067;48.134;8.378;2022-08-11T15:45:24;38.20;13.90
49236;DHT22;35067;48.134;8.378;2022-08-11T15:47:48;40.10;12.10
49236;DHT22;35067;48.134;8.378;2022-08-11T15:49:58;39.70;12.60
49236;DHT22;35067;48.134;8.378;2022-08-11T15:52:12;40.40;12.00
49236;DHT22;35067;48.134;8.378;2022-08-11T15:54:18;39.40;12.20
49236;DHT22;35067;48.134;8.378;2022-08-11T15:56:25;38.60;13.30
49236;DHT22;35067;48.134;8.378;2022-08-11T15:58:33;39.20;12.50
49236;DHT22;35067;48.134;8.378;2022-08-11T16:01:00;39.00;12.60
49236;DHT22;35067;48.134;8.378;2022-08-11T16:03:19;37.20;13.80
49236;DHT22;35067;48.134;8.378;2022-08-11T16:05:41;37.50;13.70
49236;DHT22;35067;48.134;8.378;2022-08-11T16:07:43;38.20;13.60
49236;DHT22;35067;48.134;8.378;2022-08-11T16:10:12;39.00;12.90
49236;DHT22;35067;48.134;8.378;2022-08-11T16:12:33;37.20;13.80
49236;DHT22;35067;48.134;8.378;2022-08-11T16:14:39;38.50;13.10
49236;DHT22;35067;48.134;8.378;2022-08-11T16:17:01;39.70;12.10
49236;DHT22;35067;48.134;8.378;2022-08-11T16:19:03;39.30;12.30
49236;DHT22;35067;48.134;8.378;2022-08-11T16:21:11;39.20;12.60
49236;DHT22;35067;48.134;8.378;2022-08-11T16:23:14;37.40;13.40
49236;DHT22;35067;48.134;8.378;2022-08-11T16:25:19;37.30;13.80
49236;DHT22;35067;48.134;8.378;2022-08-11T16:27:23;37.70;14.10
49236;DHT22;35067;48.134;8.378;2022-08-11T16:29:25;38.20;13.50
49236;DHT22;35067;48.134;8.378;2022-08-11T16:31:28;38.70;13.30
49236;DHT22;35067;48.134;8.378;2022-08-11T16:33:29;40.10;12.20
49236;DHT22;35067;48.134;8.378;2022-08-11T16:35:35;38.00;12.80
49236;DHT22;35067;48.134;8.378;2022-08-11T16:37:56;37.30;13.60
49236;DHT22;35067;48.134;8.378;2022-08-11T16:40:16;36.80;14.80
49236;DHT22;35067;48.134;8.378;2022-08-11T16:42:18;37.50;13.60
49236;DHT22;35067;48.134;8.378;2022-08-11T16:44:38;37.90;13.30
49236;DHT22;35067;48.134;8.378;2022-08-11T16:46:59;37.90;13.40